Time;durP1;ratioP1;P1;durP2;ratioP2;P2;SDS_P1;SDS_P2;PMS_P1;PMS_P2;Temp;Humidity;BMP_temperature;BMP_pressure;BME280_temperature;BME280_humidity;BME280_pressure;Samples;Min_cycle;Max_cycle;Signal;HPM_P1;HPM_P2
2023/12/27 00:01:50;;;;;;;15.73;6.93;;;9.40;99.90;;;;;;5036692;28;20029;-79
2023/12/27 00:04:18;;;;;;;12.48;6.28;;;9.40;99.90;;;;;;5038839;28;20033;-79
2023/12/27 00:06:44;;;;;;;18.95;7.60;;;9.50;99.90;;;;;;5042016;28;20025;-78
2023/12/27 00:09:10;;;;;;;19.25;6.40;;;9.40;99.90;;;;;;5041826;28;20033;-79
2023/12/27 00:11:36;;;;;;;13.30;6.03;;;9.40;99.90;;;;;;5040018;28;20045;-78
2023/12/27 00:14:02;;;;;;;15.50;6.80;;;9.50;99.90;;;;;;5023120;28;20029;-79
2023/12/27 00:16:29;;;;;;;16.58;5.85;;;9.50;99.90;;;;;;5039697;28;20025;-78
2023/12/27 00:18:55;;;;;;;9.57;4.50;;;9.50;99.90;;;;;;5022386;28;20037;-79
2023/12/27 00:21:21;;;;;;;12.98;7.07;;;9.60;99.90;;;;;;5039978;28;20036;-78
2023/12/27 00:23:47;;;;;;;15.15;6.85;;;9.60;99.90;;;;;;5040822;28;20183;-78
2023/12/27 00:26:13;;;;;;;13.90;5.90;;;9.60;99.90;;;;;;5039941;28;20444;-79
2023/12/27 00:28:39;;;;;;;14.20;6.65;;;9.70;99.90;;;;;;5038828;28;20045;-79
2023/12/27 00:31:04;;;;;;;18.35;7.35;;;9.70;99.90;;;;;;5039482;28;20399;-78
2023/12/27 00:33:30;;;;;;;13.65;6.18;;;9.80;99.90;;;;;;5039947;28;20025;-79
2023/12/27 00:35:56;;;;;;;12.77;6.93;;;9.80;99.90;;;;;;5022403;28;20068;-79
2023/12/27 00:38:21;;;;;;;12.85;5.85;;;9.80;99.90;;;;;;5040699;28;20427;-78
2023/12/27 00:40:47;;;;;;;10.57;5.53;;;9.80;99.90;;;;;;5039825;28;20037;-78
2023/12/27 00:43:13;;;;;;;9.88;5.18;;;9.90;99.90;;;;;;5039574;28;20065;-79
2023/12/27 00:45:38;;;;;;;13.25;6.32;;;9.90;99.90;;;;;;5038414;28;20113;-78
2023/12/27 00:48:05;;;;;;;12.38;5.82;;;9.90;99.90;;;;;;5021668;28;20479;-79
2023/12/27 00:50:30;;;;;;;11.75;6.25;;;9.90;99.90;;;;;;5040646;28;20075;-79
2023/12/27 00:52:56;;;;;;;14.32;6.65;;;9.90;99.90;;;;;;5038201;28;20033;-78
2023/12/27 00:55:23;;;;;;;12.05;4.78;;;9.90;99.90;;;;;;5038887;28;20496;-78
2023/12/27 00:57:48;;;;;;;15.00;6.57;;;9.90;99.90;;;;;;5022413;28;20145;-78
2023/12/27 01:00:14;;;;;;;12.15;5.53;;;10.00;99.90;;;;;;5039130;28;20049;-78
2023/12/27 01:02:40;;;;;;;17.58;7.60;;;10.00;99.90;;;;;;5039730;28;20113;-78
2023/12/27 01:05:07;;;;;;;18.83;8.00;;;10.00;99.90;;;;;;5037611;28;20032;-78
2023/12/27 01:07:33;;;;;;;14.27;6.70;;;10.10;99.90;;;;;;5038538;28;20471;-78
2023/12/27 01:09:59;;;;;;;14.45;6.97;;;10.00;99.90;;;;;;5036016;28;20064;-78
2023/12/27 01:12:24;;;;;;;13.45;7.00;;;10.00;99.90;;;;;;5037067;28;20047;-78
2023/12/27 01:14:50;;;;;;;14.40;6.63;;;10.00;99.90;;;;;;5036337;28;20033;-78
2023/12/27 01:17:15;;;;;;;15.18;7.03;;;9.90;99.90;;;;;;5036759;28;20025;-78
2023/12/27 01:19:41;;;;;;;12.27;5.85;;;9.90;99.90;;;;;;5020028;28;20033;-78
2023/12/27 01:22:07;;;;;;;11.05;5.43;;;9.90;99.90;;;;;;5037068;28;20030;-78
2023/12/27 01:24:32;;;;;;;9.10;4.60;;;9.90;99.90;;;;;;5039009;28;20084;-78
2023/12/27 01:26:58;;;;;;;12.98;6.57;;;9.90;99.90;;;;;;5037030;28;20460;-78
2023/12/27 01:29:23;;;;;;;12.48;5.45;;;9.90;99.90;;;;;;5037988;28;20068;-78
2023/12/27 01:31:49;;;;;;;11.30;5.28;;;9.90;99.90;;;;;;5037518;28;20115;-78
2023/12/27 01:34:15;;;;;;;13.07;6.28;;;9.90;99.90;;;;;;5037647;28;20202;-78
2023/12/27 01:36:41;;;;;;;14.88;6.45;;;9.80;99.90;;;;;;5036352;28;20032;-78
2023/12/27 01:39:07;;;;;;;11.57;6.10;;;9.70;99.90;;;;;;5003717;28;20030;-78
2023/12/27 01:41:32;;;;;;;13.88;6.28;;;9.70;99.90;;;;;;5036071;28;20412;-79
2023/12/27 01:43:58;;;;;;;16.52;6.32;;;9.70;99.90;;;;;;5037141;28;20030;-78
2023/12/27 01:46:25;;;;;;;17.52;5.68;;;9.70;99.90;;;;;;5035517;28;20395;-78
2023/12/27 01:48:50;;;;;;;17.70;6.35;;;9.60;99.90;;;;;;5003008;28;20122;-78
2023/12/27 01:51:20;;;;;;;11.43;4.70;;;9.70;99.90;;;;;;5035755;28;20065;-78
2023/12/27 01:53:47;;;;;;;11.55;4.82;;;9.70;99.90;;;;;;5035201;28;20029;-78
2023/12/27 01:56:13;;;;;;;12.45;5.70;;;9.70;99.90;;;;;;5037369;28;20025;-78
2023/12/27 01:58:38;;;;;;;13.52;6.03;;;9.80;99.90;;;;;;5039365;28;20059;-78
2023/12/27 02:01:04;;;;;;;15.57;5.85;;;9.70;99.90;;;;;;5020696;28;20099;-78
2023/12/27 02:03:30;;;;;;;11.27;5.15;;;9.70;99.90;;;;;;5039832;28;20037;-78
2023/12/27 02:05:57;;;;;;;9.50;4.88;;;9.60;99.90;;;;;;5039830;28;20032;-78
2023/12/27 02:08:24;;;;;;;10.73;5.15;;;9.60;99.90;;;;;;5038336;28;20032;-77
2023/12/27 02:10:50;;;;;;;11.75;5.50;;;9.60;99.90;;;;;;5036380;28;20144;-77
2023/12/27 02:13:16;;;;;;;14.05;5.00;;;9.60;99.90;;;;;;5036147;28;20083;-79
2023/12/27 02:15:42;;;;;;;8.85;5.10;;;9.60;99.90;;;;;;5034533;28;20029;-77
2023/12/27 02:18:10;;;;;;;11.60;6.32;;;9.60;99.90;;;;;;5036605;28;20036;-78
2023/12/27 02:20:39;;;;;;;16.10;5.70;;;9.60;99.90;;;;;;5035468;28;20124;-78
2023/12/27 02:23:07;;;;;;;10.32;4.97;;;9.40;99.90;;;;;;5036952;28;20021;-78
2023/12/27 02:25:33;;;;;;;16.60;6.45;;;9.40;99.90;;;;;;5036086;28;20091;-78
2023/12/27 02:27:59;;;;;;;9.68;5.10;;;9.40;99.90;;;;;;5033321;28;20025;-79
2023/12/27 02:30:25;;;;;;;14.52;6.22;;;9.40;99.90;;;;;;5033582;28;20129;-79
2023/12/27 02:32:51;;;;;;;16.08;5.95;;;9.30;99.90;;;;;;5035440;28;20072;-79
2023/12/27 02:35:18;;;;;;;11.20;5.28;;;9.30;99.90;;;;;;5036351;28;20030;-79
2023/12/27 02:37:44;;;;;;;14.57;5.28;;;9.30;99.90;;;;;;5034807;28;20121;-79
2023/12/27 02:40:10;;;;;;;12.43;4.90;;;9.30;99.90;;;;;;5036224;28;20057;-79
2023/12/27 02:42:39;;;;;;;7.80;3.90;;;9.30;99.90;;;;;;5034235;28;20025;-79
2023/12/27 02:45:06;;;;;;;12.07;4.50;;;9.30;99.90;;;;;;5036630;28;20064;-79
2023/12/27 02:47:33;;;;;;;8.70;4.25;;;9.40;99.90;;;;;;5035585;28;20049;-79
2023/12/27 02:49:58;;;;;;;15.45;5.60;;;9.50;99.90;;;;;;5035210;28;20179;-79
2023/12/27 02:52:24;;;;;;;9.25;4.70;;;9.60;99.90;;;;;;5035143;28;20061;-79
2023/12/27 02:54:49;;;;;;;13.27;5.13;;;9.50;99.90;;;;;;5035259;28;20021;-78
2023/12/27 02:57:15;;;;;;;13.27;6.00;;;9.60;99.90;;;;;;5037222;28;20495;-78
2023/12/27 02:59:41;;;;;;;10.50;4.80;;;9.50;99.90;;;;;;5036768;28;20475;-78
2023/12/27 03:02:06;;;;;;;12.13;5.53;;;9.30;99.90;;;;;;5035313;28;20033;-78
2023/12/27 03:04:32;;;;;;;13.98;5.43;;;9.20;99.90;;;;;;5036580;28;20034;-79
2023/12/27 03:06:58;;;;;;;11.38;4.55;;;9.20;99.90;;;;;;5018645;28;20068;-79
2023/12/27 03:09:24;;;;;;;9.95;4.70;;;9.30;99.90;;;;;;5036853;28;20034;-78
2023/12/27 03:11:51;;;;;;;12.07;4.97;;;9.30;99.90;;;;;;5038771;28;20057;-78
2023/12/27 03:14:17;;;;;;;11.48;4.80;;;9.40;99.90;;;;;;5037069;28;20026;-78
2023/12/27 03:16:43;;;;;;;12.02;4.70;;;9.30;99.90;;;;;;5037217;28;20028;-78
2023/12/27 03:19:08;;;;;;;12.00;4.80;;;9.40;99.90;;;;;;5034566;28;20104;-78
2023/12/27 03:21:34;;;;;;;18.17;6.10;;;9.40;99.90;;;;;;5035580;28;20029;-78
2023/12/27 03:24:00;;;;;;;10.75;4.47;;;9.30;99.90;;;;;;5017798;28;20026;-79
2023/12/27 03:26:25;;;;;;;13.57;5.55;;;9.30;99.90;;;;;;5035321;28;20034;-79
2023/12/27 03:28:51;;;;;;;13.10;5.38;;;9.20;99.90;;;;;;5034778;28;20033;-78
2023/12/27 03:31:17;;;;;;;11.18;4.68;;;9.20;99.90;;;;;;5033655;28;20068;-77
2023/12/27 03:33:42;;;;;;;12.40;4.43;;;9.20;99.90;;;;;;5035337;28;20117;-78
2023/12/27 03:36:08;;;;;;;12.68;5.28;;;9.10;99.90;;;;;;5033586;28;20482;-78
2023/12/27 03:38:34;;;;;;;12.73;5.20;;;9.20;99.90;;;;;;5035597;28;20025;-77
2023/12/27 03:40:59;;;;;;;13.20;5.32;;;9.10;99.90;;;;;;5037981;28;20447;-78
2023/12/27 03:43:25;;;;;;;14.32;5.18;;;9.10;99.90;;;;;;5038419;28;20417;-78
2023/12/27 03:45:54;;;;;;;13.85;6.30;;;9.10;99.90;;;;;;5036676;28;20029;-78
2023/12/27 03:48:22;;;;;;;14.70;5.88;;;9.00;99.90;;;;;;5020820;28;20040;-78
2023/12/27 03:50:48;;;;;;;18.98;7.18;;;8.90;99.90;;;;;;5037286;28;20123;-78
2023/12/27 03:53:14;;;;;;;12.43;5.57;;;8.80;99.90;;;;;;5038470;28;20434;-78
2023/12/27 03:55:42;;;;;;;15.82;6.38;;;8.70;99.90;;;;;;5038925;28;20452;-79
2023/12/27 03:58:08;;;;;;;16.05;5.60;;;8.70;99.90;;;;;;5038606;28;20029;-79
2023/12/27 04:00:34;;;;;;;9.05;4.90;;;8.60;99.90;;;;;;5037911;28;20033;-79
2023/12/27 04:02:59;;;;;;;14.95;5.28;;;8.50;99.90;;;;;;5037670;28;20029;-79
2023/12/27 04:05:25;;;;;;;11.15;4.57;;;8.60;99.90;;;;;;5036380;28;20029;-78
2023/12/27 04:07:51;;;;;;;12.65;5.30;;;8.70;99.90;;;;;;5037071;28;20033;-78
2023/12/27 04:10:16;;;;;;;16.50;5.82;;;8.70;99.90;;;;;;5035909;28;20114;-78
2023/12/27 04:12:42;;;;;;;16.52;5.93;;;8.70;99.90;;;;;;5035713;28;20083;-78
2023/12/27 04:15:08;;;;;;;15.95;6.03;;;8.70;99.90;;;;;;5036446;28;20128;-78
2023/12/27 04:17:34;;;;;;;11.52;5.30;;;8.60;99.90;;;;;;5037423;28;20037;-78
2023/12/27 04:20:00;;;;;;;11.88;5.00;;;8.60;99.90;;;;;;5036549;28;20476;-78
2023/12/27 04:22:25;;;;;;;14.38;5.43;;;8.70;99.90;;;;;;5019186;28;20487;-78
2023/12/27 04:24:51;;;;;;;15.45;5.47;;;8.70;99.90;;;;;;5035186;28;20092;-78
2023/12/27 04:27:17;;;;;;;13.85;5.55;;;8.70;99.90;;;;;;5035930;28;20207;-78
2023/12/27 04:29:42;;;;;;;14.43;5.78;;;8.60;99.90;;;;;;5035069;28;20037;-78
2023/12/27 04:32:08;;;;;;;16.48;5.82;;;8.50;99.90;;;;;;5036077;28;20056;-78
2023/12/27 04:34:34;;;;;;;10.85;5.22;;;8.60;99.90;;;;;;5036422;28;20068;-78
2023/12/27 04:37:00;;;;;;;16.27;5.50;;;8.60;99.90;;;;;;5036267;28;20032;-78
2023/12/27 04:39:26;;;;;;;13.73;5.40;;;8.50;99.90;;;;;;5034960;28;20033;-77
2023/12/27 04:41:51;;;;;;;12.45;5.78;;;8.40;99.90;;;;;;5027285;28;20030;-76
2023/12/27 04:44:17;;;;;;;17.17;5.75;;;8.40;99.90;;;;;;5046380;28;20034;-77
2023/12/27 04:46:43;;;;;;;13.15;6.00;;;8.40;99.90;;;;;;5046110;28;20056;-78
2023/12/27 04:49:09;;;;;;;16.55;6.35;;;8.30;99.90;;;;;;5038757;28;20494;-77
2023/12/27 04:51:35;;;;;;;17.17;6.35;;;8.30;99.90;;;;;;5038164;28;20032;-77
2023/12/27 04:54:04;;;;;;;14.23;5.63;;;8.30;99.90;;;;;;5039037;28;20029;-78
2023/12/27 04:56:30;;;;;;;18.75;6.63;;;8.30;99.90;;;;;;5021242;28;20029;-77
2023/12/27 04:58:56;;;;;;;16.52;6.10;;;8.20;99.90;;;;;;5037905;28;20080;-78
2023/12/27 05:01:21;;;;;;;17.70;5.72;;;8.20;99.90;;;;;;5038965;28;20518;-77
2023/12/27 05:03:47;;;;;;;15.10;6.00;;;8.20;99.90;;;;;;5037936;28;20382;-78
2023/12/27 05:06:13;;;;;;;12.93;6.13;;;8.30;99.90;;;;;;5038047;28;20026;-78
2023/12/27 05:08:40;;;;;;;14.73;5.65;;;8.30;99.90;;;;;;5036756;28;20115;-78
2023/12/27 05:11:15;;;;;;;15.40;6.55;;;8.30;99.90;;;;;;5035471;28;20510;-78
2023/12/27 05:13:41;;;;;;;20.75;6.88;;;8.30;99.90;;;;;;5036991;28;20032;-78
2023/12/27 05:16:17;;;;;;;19.67;7.03;;;8.20;99.90;;;;;;5035854;28;20037;-78
2023/12/27 05:18:44;;;;;;;15.30;6.32;;;8.20;99.90;;;;;;5036551;28;20029;-79
2023/12/27 05:21:12;;;;;;;24.42;6.30;;;8.20;99.90;;;;;;5036102;28;20064;-79
2023/12/27 05:23:37;;;;;;;18.73;6.43;;;8.20;99.90;;;;;;5036472;28;20040;-78
2023/12/27 05:26:05;;;;;;;19.30;7.03;;;8.20;99.90;;;;;;5034807;28;20029;-79
2023/12/27 05:28:31;;;;;;;16.98;5.90;;;8.10;99.90;;;;;;5036441;28;20056;-79
2023/12/27 05:30:57;;;;;;;15.55;6.28;;;8.00;99.90;;;;;;5035257;28;20029;-79
2023/12/27 05:33:24;;;;;;;11.98;5.68;;;8.10;99.90;;;;;;5002804;28;20438;-79
2023/12/27 05:35:50;;;;;;;17.60;6.50;;;8.20;99.90;;;;;;5035425;28;20021;-78
2023/12/27 05:38:16;;;;;;;16.38;6.65;;;8.20;99.90;;;;;;5017612;28;20132;-79
2023/12/27 05:40:42;;;;;;;19.23;7.00;;;8.20;99.90;;;;;;5017064;28;20056;-78
2023/12/27 05:43:08;;;;;;;18.13;6.60;;;8.20;99.90;;;;;;5035631;28;20029;-78
2023/12/27 05:45:34;;;;;;;15.48;6.28;;;8.20;99.90;;;;;;5035373;28;20329;-78
2023/12/27 05:48:00;;;;;;;14.43;5.75;;;8.20;99.90;;;;;;5016649;28;20064;-79
2023/12/27 05:50:25;;;;;;;16.40;5.80;;;8.20;99.90;;;;;;5035411;28;20119;-78
2023/12/27 05:52:51;;;;;;;18.58;6.40;;;8.20;99.90;;;;;;5035424;28;20472;-79
2023/12/27 05:55:17;;;;;;;17.58;6.95;;;8.20;99.90;;;;;;5034964;28;20029;-79
2023/12/27 05:57:43;;;;;;;15.90;6.57;;;8.20;99.90;;;;;;5033301;28;20037;-79
2023/12/27 06:00:09;;;;;;;15.07;5.97;;;8.10;99.90;;;;;;5034705;28;20034;-78
2023/12/27 06:02:34;;;;;;;15.63;5.18;;;8.00;99.90;;;;;;5034915;28;20037;-78
2023/12/27 06:05:00;;;;;;;20.60;5.55;;;8.00;99.90;;;;;;5036046;28;20026;-78
2023/12/27 06:07:26;;;;;;;21.55;6.28;;;8.00;99.90;;;;;;5000413;28;20518;-78
2023/12/27 06:09:52;;;;;;;22.60;5.95;;;8.00;99.90;;;;;;5033369;28;20455;-78
2023/12/27 06:12:18;;;;;;;18.30;6.50;;;8.00;99.90;;;;;;5034470;28;20353;-79
2023/12/27 06:14:44;;;;;;;24.85;7.13;;;8.10;99.90;;;;;;5033389;28;20356;-78
2023/12/27 06:17:10;;;;;;;13.38;5.85;;;8.10;99.90;;;;;;5034633;28;20060;-78
2023/12/27 06:19:36;;;;;;;17.77;6.28;;;8.00;99.90;;;;;;5033722;28;20494;-78
2023/12/27 06:22:03;;;;;;;24.05;6.93;;;7.90;99.90;;;;;;5034867;28;20029;-78
2023/12/27 06:24:29;;;;;;;20.25;6.22;;;7.90;99.90;;;;;;5034800;28;20025;-79
2023/12/27 06:26:55;;;;;;;14.00;5.47;;;7.90;99.90;;;;;;5034170;28;20022;-79
2023/12/27 06:29:21;;;;;;;21.35;6.45;;;7.90;99.90;;;;;;5035161;28;20055;-79
2023/12/27 06:31:47;;;;;;;22.55;6.97;;;7.90;99.90;;;;;;5034865;28;20033;-79
2023/12/27 06:34:12;;;;;;;18.83;6.45;;;7.80;99.90;;;;;;5034261;28;20392;-80
2023/12/27 06:36:39;;;;;;;21.88;7.10;;;7.70;99.90;;;;;;5034164;28;20104;-77
2023/12/27 06:39:06;;;;;;;25.38;7.07;;;7.60;99.90;;;;;;5033458;28;20029;-79
2023/12/27 06:41:33;;;;;;;21.73;6.95;;;7.50;99.90;;;;;;5016337;28;20124;-78
2023/12/27 06:43:59;;;;;;;29.20;7.38;;;7.50;99.90;;;;;;5033383;28;20442;-77
2023/12/27 06:46:25;;;;;;;21.73;6.90;;;7.50;99.90;;;;;;5000858;28;20037;-78
2023/12/27 06:48:51;;;;;;;17.70;7.03;;;7.50;99.90;;;;;;5035001;28;20033;-79
2023/12/27 06:51:16;;;;;;;17.50;6.30;;;7.60;99.90;;;;;;5033582;28;20025;-78
2023/12/27 06:53:42;;;;;;;18.60;6.53;;;7.60;99.90;;;;;;5033015;28;20057;-78
2023/12/27 06:56:09;;;;;;;22.55;7.57;;;7.60;99.90;;;;;;5032970;28;20030;-78
2023/12/27 06:58:35;;;;;;;20.20;7.78;;;7.60;99.90;;;;;;5034052;28;20041;-77
2023/12/27 07:01:01;;;;;;;18.30;7.07;;;7.60;99.90;;;;;;5015712;28;20056;-78
2023/12/27 07:03:27;;;;;;;20.58;7.30;;;7.50;99.90;;;;;;5032616;28;20116;-78
2023/12/27 07:05:53;;;;;;;21.85;7.50;;;7.60;99.90;;;;;;5015890;28;20055;-78
2023/12/27 07:08:18;;;;;;;16.73;6.53;;;7.70;99.90;;;;;;5032403;28;20480;-77
2023/12/27 07:10:44;;;;;;;19.25;7.03;;;7.70;99.90;;;;;;5031141;28;20093;-77
2023/12/27 07:13:10;;;;;;;27.73;8.05;;;7.70;99.90;;;;;;5032772;28;20371;-77
2023/12/27 07:15:38;;;;;;;29.42;7.68;;;7.70;99.90;;;;;;5000335;28;20033;-78
2023/12/27 07:18:04;;;;;;;21.95;8.80;;;7.70;99.90;;;;;;5034839;28;20107;-78
2023/12/27 07:20:30;;;;;;;19.98;7.00;;;7.70;99.90;;;;;;5034488;28;20064;-78
2023/12/27 07:22:56;;;;;;;24.63;7.78;;;7.70;99.90;;;;;;5033841;28;20475;-78
2023/12/27 07:25:22;;;;;;;26.77;8.25;;;7.70;99.90;;;;;;5035732;28;20064;-78
2023/12/27 07:27:47;;;;;;;23.83;8.20;;;7.70;99.90;;;;;;5033231;28;20038;-79
2023/12/27 07:30:13;;;;;;;24.00;7.88;;;7.60;99.90;;;;;;5035156;28;20045;-78
2023/12/27 07:32:39;;;;;;;24.48;7.93;;;7.50;99.90;;;;;;5033568;28;20053;-79
2023/12/27 07:35:05;;;;;;;20.85;7.05;;;7.50;99.90;;;;;;5034251;28;20383;-78
2023/12/27 07:37:31;;;;;;;26.90;8.18;;;7.50;99.90;;;;;;5037878;28;20040;-79
2023/12/27 07:39:57;;;;;;;22.60;7.57;;;7.50;99.90;;;;;;5036334;28;20514;-78
2023/12/27 07:42:24;;;;;;;24.08;8.15;;;7.50;99.90;;;;;;5034610;28;20053;-78
2023/12/27 07:44:50;;;;;;;24.33;7.88;;;7.40;99.90;;;;;;5035294;28;20132;-79
2023/12/27 07:47:16;;;;;;;25.40;7.47;;;7.40;99.90;;;;;;5016299;28;20030;-79
2023/12/27 07:49:42;;;;;;;26.42;7.60;;;7.30;99.90;;;;;;5015566;28;20383;-78
2023/12/27 07:52:08;;;;;;;19.60;7.05;;;7.30;99.90;;;;;;5032207;28;20033;-78
2023/12/27 07:54:37;;;;;;;24.92;8.50;;;7.30;99.90;;;;;;5031867;28;20039;-79
2023/12/27 07:57:03;;;;;;;20.73;7.22;;;7.40;99.90;;;;;;5031821;28;20029;-79
2023/12/27 07:59:31;;;;;;;24.55;7.55;;;7.50;99.90;;;;;;5031770;28;20383;-78
2023/12/27 08:01:56;;;;;;;21.90;7.60;;;7.50;99.90;;;;;;5031118;28;20041;-78
2023/12/27 08:04:22;;;;;;;20.73;6.75;;;7.60;99.90;;;;;;5030998;28;20469;-78
2023/12/27 08:06:49;;;;;;;20.63;6.68;;;7.60;99.90;;;;;;5014848;28;20426;-78
2023/12/27 08:09:15;;;;;;;24.80;7.82;;;7.70;99.90;;;;;;5030481;28;20523;-76
2023/12/27 08:11:41;;;;;;;19.30;6.85;;;7.70;99.90;;;;;;5014876;28;20058;-77
2023/12/27 08:14:06;;;;;;;22.48;7.20;;;7.70;99.90;;;;;;5014746;28;20431;-77
2023/12/27 08:16:32;;;;;;;24.27;7.55;;;7.70;99.90;;;;;;5030709;28;20029;-78
2023/12/27 08:18:57;;;;;;;26.15;7.97;;;7.60;99.90;;;;;;5031731;28;20030;-77
2023/12/27 08:21:23;;;;;;;22.63;7.88;;;7.60;99.90;;;;;;5030625;28;20029;-78
2023/12/27 08:23:49;;;;;;;23.50;7.60;;;7.50;99.90;;;;;;5031074;28;20116;-78
2023/12/27 08:26:14;;;;;;;18.95;6.90;;;7.50;99.90;;;;;;5033759;28;20104;-77
2023/12/27 08:28:40;;;;;;;20.02;7.85;;;7.50;99.90;;;;;;5035375;28;20471;-77
2023/12/27 08:31:06;;;;;;;22.23;8.35;;;7.60;99.90;;;;;;5035326;28;20048;-77
2023/12/27 08:33:35;;;;;;;19.92;7.75;;;7.60;99.90;;;;;;5035327;28;20030;-77
2023/12/27 08:36:01;;;;;;;18.58;7.15;;;7.70;99.90;;;;;;5035049;28;20101;-78
2023/12/27 08:38:28;;;;;;;19.40;7.07;;;7.80;99.90;;;;;;5034313;28;20120;-77
2023/12/27 08:40:54;;;;;;;22.33;7.65;;;7.90;99.90;;;;;;5034800;28;20067;-77
2023/12/27 08:43:20;;;;;;;17.45;8.02;;;8.00;99.90;;;;;;5034615;28;20517;-78
2023/12/27 08:45:47;;;;;;;15.30;7.20;;;7.90;99.90;;;;;;5034000;28;20029;-77
2023/12/27 08:48:13;;;;;;;16.90;8.07;;;7.90;99.90;;;;;;5035209;28;20029;-77
2023/12/27 08:50:40;;;;;;;17.08;7.55;;;7.90;99.90;;;;;;5017879;28;20509;-77
2023/12/27 08:53:06;;;;;;;13.25;6.82;;;8.00;99.90;;;;;;5034115;28;20072;-78
2023/12/27 08:55:32;;;;;;;13.00;7.20;;;8.00;99.90;;;;;;5034071;28;20033;-77
2023/12/27 08:57:58;;;;;;;13.30;8.10;;;7.90;99.90;;;;;;5034391;28;20030;-77
2023/12/27 09:00:23;;;;;;;14.48;7.95;;;8.00;99.90;;;;;;5033822;28;20064;-77
2023/12/27 09:02:49;;;;;;;13.88;7.13;;;7.90;99.90;;;;;;5033644;28;20467;-77
2023/12/27 09:05:15;;;;;;;11.32;7.53;;;7.90;99.90;;;;;;5034186;28;20152;-77
2023/12/27 09:07:40;;;;;;;12.60;7.78;;;8.00;99.90;;;;;;5034815;28;20030;-77
2023/12/27 09:10:06;;;;;;;12.48;7.35;;;8.00;99.90;;;;;;5034690;28;20072;-77
2023/12/27 09:12:32;;;;;;;15.10;8.45;;;8.00;99.90;;;;;;5034782;28;20128;-77
2023/12/27 09:14:58;;;;;;;13.82;8.30;;;8.00;99.90;;;;;;5033369;28;20041;-77
2023/12/27 09:17:23;;;;;;;17.88;9.13;;;8.00;99.90;;;;;;5033557;28;20034;-77
2023/12/27 09:19:49;;;;;;;11.95;7.57;;;8.10;99.90;;;;;;5034814;28;20048;-77
2023/12/27 09:22:15;;;;;;;14.18;8.13;;;8.00;99.90;;;;;;5034652;28;20028;-76
2023/12/27 09:24:43;;;;;;;14.55;7.32;;;8.10;99.90;;;;;;5034701;28;20053;-76
2023/12/27 09:27:13;;;;;;;13.02;7.97;;;8.20;99.90;;;;;;5033690;28;20364;-77
2023/12/27 09:29:39;;;;;;;12.65;7.40;;;8.20;99.90;;;;;;5034654;28;20033;-78
2023/12/27 09:32:05;;;;;;;13.35;7.82;;;8.20;99.90;;;;;;5016922;28;20395;-77
2023/12/27 09:34:31;;;;;;;12.88;7.90;;;8.20;99.90;;;;;;5034601;28;20108;-77
2023/12/27 09:36:56;;;;;;;11.55;7.65;;;8.30;99.90;;;;;;5034150;28;20053;-77
2023/12/27 09:39:22;;;;;;;13.23;7.57;;;8.30;99.90;;;;;;5032996;28;20495;-77
2023/12/27 09:41:48;;;;;;;12.07;8.40;;;8.30;99.90;;;;;;5033539;28;20145;-77
2023/12/27 09:44:22;;;;;;;14.13;9.07;;;8.30;99.90;;;;;;5033996;28;20384;-77
2023/12/27 09:46:48;;;;;;;14.35;9.10;;;8.30;99.90;;;;;;5035189;28;20040;-78
2023/12/27 09:49:15;;;;;;;13.00;8.07;;;8.30;99.90;;;;;;5033950;28;20030;-77
2023/12/27 09:51:42;;;;;;;13.32;8.60;;;8.30;99.90;;;;;;5034709;28;20030;-77
2023/12/27 09:54:08;;;;;;;12.98;7.75;;;8.30;99.90;;;;;;5034516;28;20038;-77
2023/12/27 09:56:36;;;;;;;11.18;7.65;;;8.30;99.90;;;;;;5032837;28;20036;-77
2023/12/27 09:59:06;;;;;;;10.93;8.20;;;8.40;99.90;;;;;;5033939;28;20029;-77
2023/12/27 10:01:37;;;;;;;13.93;8.77;;;8.30;99.90;;;;;;5033942;28;20026;-77
2023/12/27 10:04:39;;;;;;;14.40;8.77;;;8.30;99.90;;;;;;5016331;28;20464;-77
2023/12/27 10:07:05;;;;;;;12.50;7.63;;;8.30;99.90;;;;;;5011088;28;20118;-78
2023/12/27 10:09:33;;;;;;;15.27;9.20;;;8.40;99.90;;;;;;5032229;28;20072;-78
2023/12/27 10:11:59;;;;;;;16.10;8.40;;;8.40;99.90;;;;;;4999753;28;20049;-78
2023/12/27 10:14:27;;;;;;;13.80;7.85;;;8.30;99.90;;;;;;5032484;28;20029;-78
2023/12/27 10:16:53;;;;;;;13.05;8.05;;;8.40;99.90;;;;;;5033543;28;20028;-78
2023/12/27 10:19:38;;;;;;;11.50;7.57;;;8.40;99.90;;;;;;5032895;28;20033;-78
2023/12/27 10:22:04;;;;;;;10.13;7.57;;;8.50;99.90;;;;;;5033294;28;20071;-78
2023/12/27 10:24:30;;;;;;;12.32;7.68;;;8.40;99.90;;;;;;5015250;28;20033;-78
2023/12/27 10:26:58;;;;;;;10.23;7.93;;;8.50;99.90;;;;;;5033236;28;20040;-77
2023/12/27 10:29:24;;;;;;;10.82;8.90;;;8.50;99.90;;;;;;5033204;28;20211;-78
2023/12/27 10:31:50;;;;;;;10.07;7.72;;;8.60;99.90;;;;;;5031827;28;20132;-77
2023/12/27 10:34:17;;;;;;;11.02;8.30;;;8.60;99.90;;;;;;4999401;28;20519;-78
2023/12/27 10:36:43;;;;;;;12.88;7.70;;;8.50;99.90;;;;;;5032858;28;20421;-78
2023/12/27 10:39:09;;;;;;;10.98;7.65;;;8.60;99.90;;;;;;5033000;28;20044;-77
2023/12/27 10:41:37;;;;;;;11.50;7.97;;;8.60;99.90;;;;;;5033055;28;20033;-78
2023/12/27 10:44:06;;;;;;;8.93;6.85;;;8.60;99.90;;;;;;5031966;28;20029;-78
2023/12/27 10:46:32;;;;;;;11.10;7.68;;;8.60;99.90;;;;;;5031415;28;20029;-78
2023/12/27 10:49:02;;;;;;;8.60;6.95;;;8.60;99.90;;;;;;5032427;28;20518;-79
2023/12/27 10:51:37;;;;;;;10.27;6.88;;;8.70;99.90;;;;;;5032707;28;20098;-78
2023/12/27 10:54:04;;;;;;;11.23;6.60;;;8.70;99.90;;;;;;5032987;28;20073;-78
2023/12/27 10:56:37;;;;;;;10.73;6.38;;;8.70;99.90;;;;;;5032634;28;20483;-78
2023/12/27 10:59:06;;;;;;;8.63;5.80;;;8.80;99.90;;;;;;5032765;28;20040;-78
2023/12/27 11:01:37;;;;;;;9.40;6.57;;;8.70;99.90;;;;;;5032710;28;20039;-78
2023/12/27 11:04:10;;;;;;;10.25;6.15;;;8.80;99.90;;;;;;5015292;28;20056;-78
2023/12/27 11:06:39;;;;;;;9.13;6.03;;;8.80;99.90;;;;;;5031875;28;20049;-78
2023/12/27 11:09:09;;;;;;;10.40;6.75;;;8.70;99.90;;;;;;5032924;28;20029;-77
2023/12/27 11:11:39;;;;;;;11.10;6.07;;;8.80;99.90;;;;;;5031425;28;20045;-78
2023/12/27 11:14:08;;;;;;;10.90;6.32;;;8.70;99.90;;;;;;5015014;28;20040;-78
2023/12/27 11:16:35;;;;;;;11.07;6.68;;;8.70;99.90;;;;;;5031325;28;20056;-78
2023/12/27 11:19:03;;;;;;;13.52;6.45;;;8.80;99.90;;;;;;5032011;28;20125;-77
2023/12/27 11:21:29;;;;;;;9.73;6.13;;;8.80;99.90;;;;;;5032460;28;20025;-78
2023/12/27 11:23:55;;;;;;;11.23;6.18;;;8.90;99.90;;;;;;5030848;28;20030;-78
2023/12/27 11:26:21;;;;;;;9.57;5.50;;;8.80;99.90;;;;;;5030988;28;20095;-78
2023/12/27 11:28:47;;;;;;;7.97;5.13;;;8.90;99.90;;;;;;5015067;28;20211;-78
2023/12/27 11:31:14;;;;;;;8.82;5.68;;;8.90;99.90;;;;;;5032324;28;20050;-78
2023/12/27 11:33:42;;;;;;;12.18;5.75;;;9.00;99.90;;;;;;5030613;28;20021;-78
2023/12/27 11:36:08;;;;;;;9.35;5.93;;;9.00;99.90;;;;;;5030646;28;20501;-77
2023/12/27 11:38:36;;;;;;;7.88;5.45;;;9.10;99.90;;;;;;5032146;28;20120;-78
2023/12/27 11:41:02;;;;;;;9.55;5.47;;;9.10;99.90;;;;;;5032078;28;20025;-78
2023/12/27 11:43:48;;;;;;;9.27;5.47;;;9.10;99.90;;;;;;5030877;28;20036;-77
2023/12/27 11:46:13;;;;;;;10.15;5.63;;;9.10;99.90;;;;;;5031630;28;20112;-77
2023/12/27 11:48:39;;;;;;;14.18;5.07;;;9.10;99.90;;;;;;5030744;28;20053;-77
2023/12/27 11:51:25;;;;;;;8.65;4.60;;;9.20;99.90;;;;;;5030721;28;20120;-79
2023/12/27 11:53:55;;;;;;;7.93;4.78;;;9.20;99.90;;;;;;5030845;28;20391;-78
2023/12/27 11:56:21;;;;;;;6.45;4.43;;;9.20;99.90;;;;;;5030635;28;20037;-77
2023/12/27 11:58:47;;;;;;;7.93;4.72;;;9.20;99.90;;;;;;5031232;28;20075;-81
2023/12/27 12:01:35;;;;;;;10.48;4.75;;;9.30;99.90;;;;;;5034443;28;20044;-82
2023/12/27 12:04:19;;;;;;;5.68;3.83;;;9.20;99.90;;;;;;5034916;28;20029;-75
2023/12/27 12:06:54;;;;;;;8.85;4.05;;;9.30;99.90;;;;;;5036183;28;20053;-72
2023/12/27 12:09:44;;;;;;;8.70;3.85;;;9.40;99.90;;;;;;5035261;28;20522;-75
2023/12/27 12:12:20;;;;;;;5.20;3.38;;;9.30;99.90;;;;;;5036693;28;20115;-79
2023/12/27 12:14:46;;;;;;;7.88;3.97;;;9.30;99.90;;;;;;5035935;28;20034;-74
2023/12/27 12:17:16;;;;;;;6.88;3.00;;;9.30;99.90;;;;;;5035974;28;20029;-73
2023/12/27 12:19:42;;;;;;;6.15;3.00;;;9.40;99.90;;;;;;5035986;28;20034;-73
2023/12/27 12:22:08;;;;;;;8.13;3.85;;;9.50;99.90;;;;;;5034021;28;20128;-72
2023/12/27 12:24:33;;;;;;;12.07;3.38;;;9.50;99.90;;;;;;5035672;28;20036;-73
2023/12/27 12:27:00;;;;;;;8.52;3.50;;;9.50;99.90;;;;;;5034113;28;20072;-72
2023/12/27 12:29:27;;;;;;;6.95;2.83;;;9.50;99.90;;;;;;5017315;28;20166;-74
2023/12/27 12:31:56;;;;;;;11.10;3.17;;;9.50;99.90;;;;;;5033938;28;20035;-72
2023/12/27 12:34:25;;;;;;;8.45;3.00;;;9.50;99.90;;;;;;5035361;28;20053;-73
2023/12/27 12:36:54;;;;;;;8.02;3.47;;;9.60;99.90;;;;;;5033898;28;20030;-73
2023/12/27 12:39:21;;;;;;;5.60;2.75;;;9.60;99.90;;;;;;5035434;28;20096;-74
2023/12/27 12:41:47;;;;;;;9.98;2.95;;;9.60;99.90;;;;;;5035100;28;20025;-74
2023/12/27 12:44:13;;;;;;;5.22;2.60;;;9.60;99.90;;;;;;5035243;28;20025;-74
2023/12/27 12:46:40;;;;;;;6.13;2.97;;;9.60;99.90;;;;;;5033220;28;20083;-73